Time;durP1;ratioP1;P1;durP2;ratioP2;P2;SDS_P1;SDS_P2;PMS_P1;PMS_P2;Temp;Humidity;BMP_temperature;BMP_pressure;BME280_temperature;BME280_humidity;BME280_pressure;Samples;Min_cycle;Max_cycle;Signal;HPM_P1;HPM_P2
2022/04/07 00:01:05;;;;;;;13.40;3.37;;;13.00;92.40;;;;;;5025899;28;20272;-96
2022/04/07 00:06:25;;;;;;;17.87;3.97;;;13.00;92.50;;;;;;5001455;28;20278;-94
2022/04/07 00:09:09;;;;;;;15.83;3.60;;;13.00;92.70;;;;;;5005183;28;20225;-96
2022/04/07 00:11:48;;;;;;;15.73;3.30;;;13.00;93.10;;;;;;5003767;28;20206;-95
2022/04/07 00:14:27;;;;;;;13.27;4.03;;;12.90;92.90;;;;;;5004662;28;20211;-95
2022/04/07 00:17:10;;;;;;;9.23;2.80;;;12.90;93.20;;;;;;5013608;28;20204;-95
2022/04/07 00:19:47;;;;;;;12.83;3.23;;;13.00;93.60;;;;;;5022508;28;20211;-95
2022/04/07 00:22:26;;;;;;;10.90;2.77;;;13.00;93.50;;;;;;5026238;28;20277;-96
2022/04/07 00:25:37;;;;;;;8.37;2.70;;;13.00;93.80;;;;;;5024351;28;20229;-95
2022/04/07 00:28:25;;;;;;;11.67;3.17;;;12.90;94.50;;;;;;4995966;28;20213;-96
2022/04/07 00:36:29;;;;;;;21.47;5.07;;;12.80;95.30;;;;;;5040974;28;20205;-96
2022/04/07 00:39:02;;;;;;;12.77;3.17;;;12.80;95.20;;;;;;5039650;28;20206;-96
2022/04/07 00:41:31;;;;;;;15.07;3.87;;;12.80;95.30;;;;;;5034937;28;20343;-96
2022/04/07 00:44:08;;;;;;;15.37;3.67;;;12.70;95.30;;;;;;5018350;28;20229;-96
2022/04/07 00:46:43;;;;;;;17.63;4.20;;;12.80;95.90;;;;;;5024458;28;20200;-96
2022/04/07 00:49:41;;;;;;;18.97;3.93;;;12.80;95.50;;;;;;5024109;28;20210;-94
2022/04/07 00:52:11;;;;;;;14.90;3.80;;;12.70;95.60;;;;;;5024104;28;20278;-94
2022/04/07 00:54:42;;;;;;;20.83;3.63;;;12.70;95.30;;;;;;5020768;28;20899;-93
2022/04/07 00:57:23;;;;;;;13.97;3.07;;;12.70;95.50;;;;;;5032396;28;20269;-95
2022/04/07 00:59:53;;;;;;;16.00;3.80;;;12.70;95.60;;;;;;5039108;28;20267;-94
2022/04/07 01:02:55;;;;;;;16.83;3.13;;;12.70;95.40;;;;;;5040571;28;20208;-94
2022/04/07 01:08:30;;;;;;;20.37;4.50;;;12.70;95.10;;;;;;5017000;28;20201;-94
2022/04/07 01:11:02;;;;;;;16.47;3.87;;;12.70;94.90;;;;;;5034860;28;20268;-95
2022/04/07 01:13:45;;;;;;;20.07;4.47;;;12.80;94.90;;;;;;5039267;28;20252;-94
2022/04/07 01:16:20;;;;;;;17.17;4.23;;;12.80;94.80;;;;;;5038983;28;20218;-96
2022/04/07 01:18:56;;;;;;;16.00;4.57;;;12.80;94.60;;;;;;5039307;28;20211;-95
2022/04/07 01:21:45;;;;;;;20.97;4.10;;;12.80;94.40;;;;;;5038347;28;20196;-96
2022/04/07 01:24:30;;;;;;;23.87;5.17;;;12.80;94.60;;;;;;5021878;28;20246;-96
2022/04/07 01:27:20;;;;;;;17.47;4.70;;;12.80;94.20;;;;;;5006078;28;20207;-95
2022/04/07 01:29:52;;;;;;;29.07;4.47;;;12.80;94.00;;;;;;5001140;28;20220;-95
2022/04/07 01:32:30;;;;;;;12.23;3.83;;;12.80;93.80;;;;;;5007656;28;20299;-95
2022/04/07 01:35:07;;;;;;;23.73;5.23;;;12.80;93.80;;;;;;5019432;28;20207;-94
2022/04/07 01:37:42;;;;;;;21.67;4.77;;;12.90;93.70;;;;;;5020846;28;20274;-96
2022/04/07 01:40:35;;;;;;;15.97;3.77;;;12.90;93.70;;;;;;5019756;28;20212;-94
2022/04/07 01:43:43;;;;;;;26.53;4.50;;;12.90;93.60;;;;;;5019730;28;20261;-95
2022/04/07 01:46:24;;;;;;;23.93;5.30;;;12.90;93.40;;;;;;4932542;29;20210;-95
2022/04/07 01:48:55;;;;;;;19.40;3.50;;;12.90;93.30;;;;;;4994360;28;20231;-95
2022/04/07 01:54:16;;;;;;;13.27;3.97;;;13.00;92.90;;;;;;4992799;28;20205;-96
2022/04/07 02:00:20;;;;;;;17.57;3.87;;;13.00;92.20;;;;;;4999390;28;20193;-95
2022/04/07 02:06:25;;;;;;;18.60;3.93;;;13.00;91.80;;;;;;5020131;28;20184;-96
2022/04/07 02:08:54;;;;;;;14.13;4.27;;;13.00;91.80;;;;;;5020656;28;20226;-95
2022/04/07 02:11:49;;;;;;;18.40;3.77;;;13.00;91.80;;;;;;5021186;28;20270;-95
2022/04/07 02:14:35;;;;;;;12.87;3.50;;;13.10;91.70;;;;;;5021685;28;20205;-96
2022/04/07 02:17:41;;;;;;;12.97;4.07;;;13.10;91.50;;;;;;5017873;28;20240;-96
2022/04/07 02:20:15;;;;;;;22.83;4.47;;;13.00;91.00;;;;;;5016038;28;20295;-95
2022/04/07 02:22:53;;;;;;;15.90;4.03;;;13.10;91.20;;;;;;5019566;28;20220;-95
2022/04/07 02:25:47;;;;;;;19.17;4.57;;;13.10;91.00;;;;;;5020178;28;20259;-96
2022/04/07 02:28:22;;;;;;;14.40;4.13;;;13.10;91.10;;;;;;4940357;29;20347;-96
2022/04/07 02:30:57;;;;;;;11.77;3.87;;;13.10;91.10;;;;;;5016630;28;20231;-95
2022/04/07 02:33:38;;;;;;;14.33;4.07;;;13.10;90.90;;;;;;5019367;28;20215;-96
2022/04/07 02:42:47;;;;;;;15.40;3.60;;;13.10;90.20;;;;;;4895170;29;20342;-95
2022/04/07 02:45:40;;;;;;;11.10;3.00;;;13.10;90.20;;;;;;4976660;28;20320;-96
2022/04/07 02:51:39;;;;;;;17.43;3.40;;;13.10;89.90;;;;;;4966116;28;20297;-96
2022/04/07 02:54:07;;;;;;;9.37;2.90;;;13.10;89.50;;;;;;4975579;28;20214;-94
2022/04/07 02:56:48;;;;;;;13.77;3.00;;;13.10;89.20;;;;;;4976537;28;20214;-96
2022/04/07 02:59:25;;;;;;;12.07;2.73;;;13.10;88.80;;;;;;4977765;28;20218;-96
2022/04/07 03:02:18;;;;;;;17.43;4.03;;;13.10;88.90;;;;;;4980722;28;20212;-95
2022/04/07 03:07:36;;;;;;;14.87;3.53;;;13.10;87.90;;;;;;5005038;28;20245;-96
2022/04/07 03:10:29;;;;;;;15.40;3.87;;;13.10;88.50;;;;;;5007093;28;20250;-94
2022/04/07 03:13:40;;;;;;;12.87;2.90;;;13.10;88.50;;;;;;5006387;28;20255;-96
2022/04/07 03:16:18;;;;;;;8.87;2.00;;;13.10;87.70;;;;;;5006537;28;20304;-96
2022/04/07 03:18:49;;;;;;;11.57;2.80;;;13.00;87.80;;;;;;5005391;28;20204;-96
2022/04/07 03:21:26;;;;;;;9.13;2.33;;;13.10;88.30;;;;;;5005741;28;20205;-96
2022/04/07 03:27:27;;;;;;;11.60;2.93;;;13.10;87.60;;;;;;4968005;28;20573;-96
2022/04/07 03:30:00;;;;;;;13.80;3.57;;;13.10;87.50;;;;;;4986585;28;20205;-96
2022/04/07 03:33:22;;;;;;;8.00;2.27;;;13.10;87.40;;;;;;4987411;28;20217;-96
2022/04/07 03:42:07;;;;;;;14.37;3.63;;;13.10;88.40;;;;;;4986878;28;20199;-96
2022/04/07 03:44:41;;;;;;;10.30;2.37;;;13.00;88.80;;;;;;4987527;28;20335;-96
2022/04/07 03:53:59;;;;;;;12.70;3.93;;;13.00;90.00;;;;;;4913084;28;20202;-96
2022/04/07 03:56:43;;;;;;;8.37;1.87;;;13.00;90.20;;;;;;4984562;28;20204;-96
2022/04/07 03:59:21;;;;;;;10.37;2.60;;;13.00;90.20;;;;;;4987508;28;20231;-96
2022/04/07 04:05:01;;;;;;;8.47;2.77;;;13.10;90.40;;;;;;4983559;28;20317;-96
2022/04/07 04:07:29;;;;;;;12.47;3.50;;;13.00;90.40;;;;;;4982094;28;20215;-95
2022/04/07 04:10:20;;;;;;;5.47;1.97;;;13.10;90.40;;;;;;4982654;28;20210;-95
2022/04/07 04:12:58;;;;;;;5.20;1.67;;;13.00;90.40;;;;;;4983145;28;20574;-96
2022/04/07 04:19:01;;;;;;;11.17;2.77;;;13.00;90.50;;;;;;4975800;28;20238;-96
2022/04/07 04:25:13;;;;;;;7.53;2.57;;;13.00;90.40;;;;;;4943438;29;20445;-95
2022/04/07 04:27:51;;;;;;;10.00;2.80;;;13.00;90.40;;;;;;4946861;29;20210;-96
2022/04/07 04:30:33;;;;;;;8.70;2.03;;;13.00;90.40;;;;;;4969381;28;20205;-96
2022/04/07 04:33:33;;;;;;;16.53;3.87;;;13.00;90.30;;;;;;4985268;28;20510;-96
2022/04/07 04:36:12;;;;;;;8.80;2.53;;;13.00;90.40;;;;;;4982333;28;20264;-96
2022/04/07 04:38:56;;;;;;;10.47;2.90;;;13.00;90.30;;;;;;4983565;28;20253;-96
2022/04/07 04:41:27;;;;;;;9.17;3.03;;;13.00;90.40;;;;;;4985519;28;20196;-96
2022/04/07 04:46:52;;;;;;;8.67;2.87;;;13.00;90.80;;;;;;4983461;28;20201;-96
2022/04/07 04:49:20;;;;;;;8.90;2.57;;;13.10;90.80;;;;;;4987999;28;20499;-96
2022/04/07 04:51:58;;;;;;;9.07;2.47;;;13.00;90.80;;;;;;4993366;28;20209;-96
2022/04/07 04:54:48;;;;;;;12.67;3.27;;;13.00;91.10;;;;;;4985065;28;20669;-95
2022/04/07 04:57:54;;;;;;;10.17;2.70;;;12.90;91.70;;;;;;4984234;28;20213;-95
2022/04/07 05:00:59;;;;;;;8.90;3.03;;;12.90;92.20;;;;;;4975654;28;20211;-96
2022/04/07 05:03:47;;;;;;;7.90;2.60;;;12.90;92.60;;;;;;4971800;28;20214;-96
2022/04/07 05:06:56;;;;;;;;;;;;;;;;;;;;;
2022/04/07 05:09:28;;;;;;;12.07;3.43;;;12.80;92.80;;;;;;4974221;28;20213;-96
2022/04/07 05:12:06;;;;;;;8.97;2.63;;;12.80;93.00;;;;;;4979732;28;20240;-96
2022/04/07 05:14:45;;;;;;;8.90;3.00;;;12.70;93.30;;;;;;4979185;28;20300;-96
2022/04/07 05:17:24;;;;;;;12.57;2.93;;;12.70;93.60;;;;;;4980492;28;20349;-95
2022/04/07 05:19:55;;;;;;;10.97;3.07;;;12.70;93.60;;;;;;4980785;28;20295;-95
2022/04/07 05:22:37;;;;;;;9.03;2.90;;;12.70;94.00;;;;;;4981002;28;20247;-96
2022/04/07 05:25:19;;;;;;;8.80;2.83;;;12.70;94.20;;;;;;4980676;28;20298;-96
2022/04/07 05:27:47;;;;;;;7.37;2.27;;;12.70;94.30;;;;;;4980409;28;20215;-96
2022/04/07 05:30:17;;;;;;;14.23;4.07;;;12.60;94.20;;;;;;4979669;28;20219;-95
2022/04/07 05:33:02;;;;;;;16.23;4.07;;;12.60;94.50;;;;;;4979888;28;20201;-95
2022/04/07 05:35:30;;;;;;;7.87;2.57;;;12.60;94.70;;;;;;4948435;28;20205;-95
2022/04/07 05:38:04;;;;;;;12.40;3.17;;;12.60;94.50;;;;;;4979622;28;20234;-94
2022/04/07 05:40:44;;;;;;;10.03;3.43;;;12.50;94.80;;;;;;4978697;28;20265;-94
2022/04/07 05:43:19;;;;;;;10.93;3.10;;;12.50;95.00;;;;;;4978160;28;20267;-95
2022/04/07 05:48:59;;;;;;;10.73;3.70;;;12.50;95.70;;;;;;4962083;29;20212;-96
2022/04/07 05:51:30;;;;;;;10.00;3.33;;;12.50;95.40;;;;;;4964032;29;20218;-96
2022/04/07 05:54:14;;;;;;;8.57;2.93;;;12.40;96.20;;;;;;4964912;29;20248;-96
2022/04/07 05:56:53;;;;;;;9.33;3.20;;;12.40;96.20;;;;;;4963759;28;20293;-96
2022/04/07 05:59:32;;;;;;;10.37;3.40;;;12.40;96.50;;;;;;4963263;28;20208;-96
2022/04/07 06:05:09;;;;;;;8.17;3.10;;;12.30;97.00;;;;;;4974513;28;20246;-96
2022/04/07 06:07:39;;;;;;;12.13;3.90;;;12.30;97.90;;;;;;4981441;28;20318;-96
2022/04/07 06:10:11;;;;;;;7.57;2.83;;;12.30;97.70;;;;;;4980988;28;20203;-95
2022/04/07 06:12:43;;;;;;;6.57;2.03;;;12.30;97.80;;;;;;4984948;28;20214;-96
2022/04/07 06:15:18;;;;;;;8.10;2.17;;;12.20;96.90;;;;;;4982579;28;20230;-93
2022/04/07 06:17:52;;;;;;;5.80;1.57;;;12.20;96.00;;;;;;4980752;28;20206;-96
2022/04/07 06:20:32;;;;;;;3.70;1.37;;;12.10;96.30;;;;;;4980892;28;20228;-95
2022/04/07 06:23:08;;;;;;;4.40;1.57;;;12.10;96.40;;;;;;4979757;28;20350;-95
2022/04/07 06:25:35;;;;;;;5.50;1.53;;;12.00;96.50;;;;;;4977546;28;20240;-94
2022/04/07 06:28:04;;;;;;;8.03;2.27;;;12.10;96.40;;;;;;4976848;28;20207;-94
2022/04/07 06:30:34;;;;;;;7.17;1.83;;;12.00;96.80;;;;;;4978172;28;20652;-95
2022/04/07 06:33:09;;;;;;;6.97;1.90;;;12.00;96.80;;;;;;4964126;28;20200;-95
2022/04/07 06:35:36;;;;;;;4.50;1.57;;;12.00;97.30;;;;;;4955754;28;20208;-94
2022/04/07 06:38:09;;;;;;;8.20;2.17;;;12.00;97.00;;;;;;4957118;28;20209;-96
2022/04/07 06:40:44;;;;;;;6.23;2.10;;;12.00;97.60;;;;;;4975768;28;20218;-94
2022/04/07 06:43:31;;;;;;;5.60;2.13;;;12.00;97.40;;;;;;4975599;28;20653;-95
2022/04/07 06:46:00;;;;;;;5.40;1.73;;;12.00;97.70;;;;;;4975423;28;20239;-95
2022/04/07 06:48:32;;;;;;;8.97;2.23;;;12.00;97.40;;;;;;4975265;28;20739;-94
2022/04/07 06:51:02;;;;;;;9.20;2.27;;;12.00;97.60;;;;;;4975737;28;20219;-95
2022/04/07 06:53:29;;;;;;;6.37;2.47;;;12.00;97.50;;;;;;4970380;28;20235;-95
2022/04/07 06:56:40;;;;;;;;;;;;;;;;;;;;;
2022/04/07 06:59:08;;;;;;;7.00;2.10;;;12.00;97.80;;;;;;4974562;28;20198;-94
2022/04/07 07:05:08;;;;;;;7.60;2.27;;;12.10;97.10;;;;;;4971198;28;20216;-95
2022/04/07 07:07:39;;;;;;;14.27;3.60;;;12.10;97.00;;;;;;4970070;28;20980;-95
2022/04/07 07:10:14;;;;;;;17.30;4.17;;;12.10;96.60;;;;;;4973561;28;20224;-95
2022/04/07 07:12:46;;;;;;;17.17;4.50;;;12.20;96.90;;;;;;4975451;28;20686;-93
2022/04/07 07:15:16;;;;;;;13.93;3.60;;;12.20;96.90;;;;;;4977958;28;20604;-94
2022/04/07 07:17:46;;;;;;;9.50;2.87;;;12.20;96.90;;;;;;4976035;28;20199;-95
2022/04/07 07:20:16;;;;;;;9.77;2.57;;;12.20;96.70;;;;;;4977860;28;20200;-95
2022/04/07 07:23:00;;;;;;;9.20;2.67;;;12.20;96.80;;;;;;4965094;28;20229;-94
2022/04/07 07:25:44;;;;;;;14.57;3.37;;;12.20;96.90;;;;;;4970180;28;20282;-95
2022/04/07 07:28:14;;;;;;;8.97;2.83;;;12.20;97.00;;;;;;4976726;28;20212;-95
2022/04/07 07:34:42;;;;;;;11.43;3.30;;;12.20;97.30;;;;;;4958818;28;20211;-96
2022/04/07 07:37:20;;;;;;;10.57;3.30;;;12.20;97.60;;;;;;4984498;28;20235;-96
2022/04/07 07:42:56;;;;;;;11.07;3.27;;;12.30;97.40;;;;;;4977617;28;20345;-96
2022/04/07 07:45:28;;;;;;;6.83;2.90;;;12.30;97.20;;;;;;4977086;28;20290;-96
2022/04/07 07:47:59;;;;;;;9.50;3.20;;;12.30;96.80;;;;;;4978455;28;20733;-96
2022/04/07 07:50:32;;;;;;;5.27;1.80;;;12.30;96.40;;;;;;4978718;28;20223;-96
2022/04/07 07:53:09;;;;;;;8.27;2.43;;;12.40;96.40;;;;;;4977003;28;20670;-96
2022/04/07 07:55:38;;;;;;;9.00;2.27;;;12.40;96.10;;;;;;4978141;28;20215;-94
2022/04/07 08:00:51;;;;;;;6.63;1.60;;;12.40;95.10;;;;;;5086961;23;20306;-95
2022/04/07 08:03:22;;;;;;;7.27;2.00;;;12.50;95.10;;;;;;5017249;28;20203;-96
2022/04/07 08:05:49;;;;;;;8.97;1.73;;;12.40;94.40;;;;;;5022261;28;20218;-96
2022/04/07 08:08:22;;;;;;;7.67;2.17;;;12.50;93.70;;;;;;5017992;28;20215;-96
2022/04/07 08:10:51;;;;;;;10.33;2.47;;;12.50;91.90;;;;;;5018538;28;20209;-96
2022/04/07 08:13:25;;;;;;;10.17;2.30;;;12.50;91.70;;;;;;5018046;28;20631;-96
2022/04/07 08:18:53;;;;;;;7.77;2.03;;;12.50;91.70;;;;;;4984036;28;20215;-96
2022/04/07 08:21:20;;;;;;;8.57;1.97;;;12.50;91.10;;;;;;4996902;28;20240;-96
2022/04/07 08:23:53;;;;;;;12.80;2.93;;;12.50;91.10;;;;;;4995973;28;20236;-96
2022/04/07 08:26:21;;;;;;;8.67;2.23;;;12.50;90.30;;;;;;4996093;28;20232;-96
2022/04/07 08:28:55;;;;;;;7.67;2.27;;;12.50;90.50;;;;;;4995673;28;20217;-96
2022/04/07 08:31:27;;;;;;;13.07;3.03;;;12.60;90.30;;;;;;4994222;28;20207;-96
2022/04/07 08:33:56;;;;;;;8.13;2.27;;;12.60;90.40;;;;;;5015134;28;20221;-96
2022/04/07 08:36:27;;;;;;;9.67;2.40;;;12.60;90.40;;;;;;5015256;28;20254;-95
2022/04/07 08:39:01;;;;;;;15.20;3.00;;;12.70;89.70;;;;;;5017130;28;20258;-96
2022/04/07 08:41:31;;;;;;;8.03;2.13;;;12.70;86.50;;;;;;5015522;28;20208;-96
2022/04/07 08:44:01;;;;;;;8.43;2.20;;;12.70;87.10;;;;;;5012434;28;20768;-96
2022/04/07 08:46:35;;;;;;;14.53;3.27;;;12.70;87.80;;;;;;5015711;28;20227;-96
2022/04/07 08:49:05;;;;;;;11.93;2.40;;;12.70;88.00;;;;;;5017042;28;20213;-96
2022/04/07 08:51:38;;;;;;;12.27;3.03;;;12.80;87.20;;;;;;5017106;28;20204;-96
2022/04/07 08:54:12;;;;;;;4.77;1.60;;;12.90;85.00;;;;;;5015510;28;20308;-96
2022/04/07 08:56:42;;;;;;;7.77;2.40;;;13.00;88.40;;;;;;5015919;28;20214;-96
2022/04/07 08:59:09;;;;;;;10.93;2.63;;;13.10;89.00;;;;;;4994708;28;20308;-96
2022/04/07 09:01:37;;;;;;;12.97;2.93;;;13.30;88.00;;;;;;4994567;28;20268;-96
2022/04/07 09:04:08;;;;;;;7.27;2.37;;;13.40;87.80;;;;;;5005048;28;20211;-96
2022/04/07 09:06:40;;;;;;;9.20;2.77;;;13.50;82.40;;;;;;5005758;28;20301;-96
2022/04/07 09:09:19;;;;;;;13.47;3.30;;;13.60;81.00;;;;;;4996741;28;20296;-96
2022/04/07 09:11:47;;;;;;;13.03;3.07;;;13.70;82.30;;;;;;4997016;28;20217;-96
2022/04/07 09:14:16;;;;;;;5.37;2.07;;;13.90;84.00;;;;;;5015502;28;20235;-96
2022/04/07 09:16:48;;;;;;;11.97;2.53;;;14.00;83.20;;;;;;5016187;28;20205;-96
2022/04/07 09:19:23;;;;;;;9.77;2.47;;;14.10;77.60;;;;;;5007839;28;20596;-96
2022/04/07 09:22:08;;;;;;;12.07;3.23;;;14.20;77.90;;;;;;4998782;28;20253;-96
2022/04/07 09:24:44;;;;;;;11.73;3.27;;;14.40;74.10;;;;;;5000088;28;20202;-96
2022/04/07 09:27:14;;;;;;;9.13;3.00;;;14.40;74.70;;;;;;5011916;28;20748;-96
2022/04/07 09:29:47;;;;;;;14.30;3.80;;;14.50;74.70;;;;;;5018291;28;20229;-96
2022/04/07 09:32:21;;;;;;;9.77;2.20;;;14.70;73.80;;;;;;5018176;28;20196;-96
2022/04/07 09:35:19;;;;;;;7.70;2.47;;;14.80;73.60;;;;;;5017869;28;20197;-96
2022/04/07 09:37:50;;;;;;;10.97;2.80;;;14.90;73.80;;;;;;5018266;28;20332;-96
2022/04/07 09:40:30;;;;;;;11.50;3.13;;;15.00;71.70;;;;;;5019257;28;20232;-96
2022/04/07 09:43:03;;;;;;;12.07;2.27;;;15.20;71.10;;;;;;5012595;28;20197;-96
2022/04/07 09:49:08;;;;;;;11.67;3.33;;;15.30;59.50;;;;;;4995348;28;20280;-94
2022/04/07 09:51:45;;;;;;;12.43;3.23;;;15.40;60.80;;;;;;4994216;28;20237;-96
2022/04/07 09:54:13;;;;;;;9.33;2.80;;;15.40;59.40;;;;;;4993427;28;20302;-96
2022/04/07 09:59:59;;;;;;;13.67;3.43;;;15.40;62.60;;;;;;4950568;28;20246;-96
2022/04/07 10:02:30;;;;;;;9.40;2.27;;;15.50;60.00;;;;;;4977607;28;20217;-96
2022/04/07 10:05:13;;;;;;;6.87;2.27;;;15.50;61.90;;;;;;4980016;28;20210;-96
2022/04/07 10:07:43;;;;;;;8.83;2.53;;;15.50;62.00;;;;;;4977799;28;20741;-96
2022/04/07 10:10:34;;;;;;;7.13;1.97;;;15.60;59.70;;;;;;4975517;28;20216;-96
2022/04/07 10:13:17;;;;;;;10.03;2.30;;;15.70;60.40;;;;;;4976886;28;20210;-93
2022/04/07 10:15:53;;;;;;;12.93;3.10;;;15.70;58.30;;;;;;4975717;28;20199;-96
2022/04/07 10:19:26;;;;;;;9.57;2.40;;;15.80;58.30;;;;;;4977346;28;20536;-96
2022/04/07 10:22:24;;;;;;;9.70;2.53;;;15.80;56.40;;;;;;4916654;29;20260;-96
2022/04/07 10:28:11;;;;;;;5.23;1.87;;;15.90;56.00;;;;;;4919655;29;20226;-96
2022/04/07 10:30:53;;;;;;;7.67;2.13;;;16.00;56.10;;;;;;4943189;28;20212;-95
2022/04/07 10:33:46;;;;;;;7.03;2.10;;;15.90;54.80;;;;;;5019560;28;20201;-96
2022/04/07 10:36:18;;;;;;;14.43;3.60;;;15.90;54.90;;;;;;5017908;28;20222;-96
2022/04/07 10:38:47;;;;;;;12.23;3.43;;;15.90;55.50;;;;;;5028490;28;20201;-96
2022/04/07 10:41:50;;;;;;;11.67;2.37;;;15.90;55.00;;;;;;5028206;28;20256;-96
2022/04/07 10:44:27;;;;;;;14.47;3.93;;;15.90;53.20;;;;;;5021126;28;20565;-95
2022/04/07 10:47:19;;;;;;;7.43;2.70;;;15.90;53.50;;;;;;5013515;28;20222;-96
2022/04/07 10:49:57;;;;;;;8.07;2.60;;;15.90;55.50;;;;;;5017519;28;20964;-96
2022/04/07 10:52:29;;;;;;;13.37;3.47;;;15.90;54.80;;;;;;5019972;28;20201;-96
2022/04/07 10:58:54;;;;;;;9.30;2.90;;;15.90;54.50;;;;;;5017749;28;20193;-96
2022/04/07 11:02:10;;;;;;;9.57;2.47;;;16.00;54.60;;;;;;5019257;28;20234;-96
2022/04/07 11:05:04;;;;;;;9.17;2.87;;;16.00;53.90;;;;;;5017370;28;20226;-96
2022/04/07 11:07:54;;;;;;;11.53;3.10;;;16.10;53.40;;;;;;5019526;28;20651;-96
2022/04/07 11:10:50;;;;;;;16.10;3.90;;;16.10;55.30;;;;;;5022804;28;20248;-96
2022/04/07 11:13:21;;;;;;;9.00;2.73;;;16.20;55.50;;;;;;5023505;28;20278;-95
2022/04/07 11:18:52;;;;;;;40.17;12.03;;;16.20;53.90;;;;;;5040090;23;20720;-96
2022/04/07 11:21:49;;;;;;;13.90;3.70;;;16.30;55.70;;;;;;5037476;28;20232;-96
2022/04/07 11:24:34;;;;;;;14.93;3.57;;;16.30;57.00;;;;;;5041866;28;20202;-96
2022/04/07 11:27:38;;;;;;;14.23;3.33;;;16.40;55.70;;;;;;5040737;28;20243;-96
2022/04/07 11:30:16;;;;;;;10.30;2.83;;;16.50;55.70;;;;;;5040755;28;20265;-96
2022/04/07 11:36:48;;;;;;;10.60;2.97;;;16.60;52.60;;;;;;5044668;28;20208;-96
2022/04/07 11:39:24;;;;;;;10.33;2.87;;;16.50;52.80;;;;;;5048139;28;20652;-96
2022/04/07 11:42:05;;;;;;;12.20;4.13;;;16.50;54.40;;;;;;5045084;28;20860;-96
2022/04/07 11:47:55;;;;;;;14.20;3.87;;;16.60;56.10;;;;;;5084336;22;20247;-96
2022/04/07 11:50:41;;;;;;;10.20;2.67;;;16.70;54.00;;;;;;5024005;28;20239;-96
2022/04/07 11:53:51;;;;;;;10.60;2.63;;;16.70;53.90;;;;;;5024084;28;20223;-96
2022/04/07 11:56:31;;;;;;;5.20;1.97;;;16.80;54.60;;;;;;5022322;28;20208;-96
2022/04/07 11:59:18;;;;;;;13.67;3.90;;;16.90;53.70;;;;;;5022778;28;20297;-96
2022/04/07 12:11:07;;;;;;;10.80;2.70;;;16.80;52.50;;;;;;5004603;28;20221;-96
2022/04/07 12:13:54;;;;;;;9.37;3.20;;;16.80;54.30;;;;;;5005592;28;20210;-96
2022/04/07 12:19:58;;;;;;;9.23;2.47;;;16.70;52.20;;;;;;4955183;28;20209;-96
2022/04/07 12:22:35;;;;;;;10.57;2.57;;;16.70;52.00;;;;;;5001977;28;20282;-96
2022/04/07 12:25:09;;;;;;;7.83;2.30;;;16.70;53.00;;;;;;5003526;28;20304;-96
2022/04/07 12:31:36;;;;;;;12.47;3.53;;;16.80;53.10;;;;;;5007763;28;20250;-96
2022/04/07 12:34:21;;;;;;;9.33;2.53;;;16.90;53.30;;;;;;5005906;28;20202;-96
2022/04/07 12:40:39;;;;;;;15.47;3.67;;;17.00;52.20;;;;;;4964089;29;20212;-96
2022/04/07 12:43:51;;;;;;;17.47;4.60;;;17.00;52.50;;;;;;5015008;28;20200;-96
2022/04/07 13:07:53;;;;;;;13.33;3.43;;;17.00;51.00;;;;;;5003981;28;20643;-96
2022/04/07 13:10:50;;;;;;;14.97;3.97;;;17.00;50.50;;;;;;5000649;28;20239;-96
2022/04/07 13:13:52;;;;;;;13.50;3.13;;;17.00;50.90;;;;;;4999070;28;20656;-96
2022/04/07 13:16:20;;;;;;;14.27;3.67;;;16.90;52.80;;;;;;4984714;28;20211;-96
2022/04/07 13:21:50;;;;;;;10.93;3.30;;;17.10;51.00;;;;;;4998588;28;20203;-96
2022/04/07 13:24:26;;;;;;;8.50;2.87;;;17.10;49.70;;;;;;5002367;28;20209;-94
2022/04/07 13:27:00;;;;;;;8.67;2.37;;;17.10;48.70;;;;;;4998302;28;20243;-96
2022/04/07 13:29:46;;;;;;;10.83;3.33;;;17.10;49.80;;;;;;4996658;28;20240;-96
2022/04/07 13:32:28;;;;;;;10.13;3.27;;;17.20;50.90;;;;;;4998415;28;20264;-96
2022/04/07 13:34:57;;;;;;;12.47;2.80;;;17.20;50.30;;;;;;4999059;28;20204;-94
2022/04/07 13:37:57;;;;;;;11.03;2.43;;;17.30;49.80;;;;;;4999405;28;20258;-95
2022/04/07 13:40:40;;;;;;;9.20;2.93;;;17.30;49.90;;;;;;4979358;28;20214;-96
2022/04/07 13:43:11;;;;;;;18.97;4.43;;;17.30;50.90;;;;;;4996544;28;20212;-95
2022/04/07 13:48:37;;;;;;;11.33;2.50;;;17.30;51.10;;;;;;4996360;28;20712;-94
2022/04/07 13:53:53;;;;;;;15.87;3.90;;;17.30;51.70;;;;;;4992045;28;20624;-95
2022/04/07 13:56:53;;;;;;;16.93;3.97;;;17.30;51.30;;;;;;4993260;28;20239;-96
2022/04/07 13:59:38;;;;;;;13.17;3.53;;;17.30;50.40;;;;;;4990825;28;20214;-96
2022/04/07 14:02:18;;;;;;;19.20;5.60;;;17.30;50.00;;;;;;4980286;28;20221;-95
2022/04/07 14:04:53;;;;;;;17.30;4.20;;;17.30;51.50;;;;;;4984250;28;20740;-95
2022/04/07 14:07:21;;;;;;;39.93;11.87;;;17.30;50.90;;;;;;5006995;22;20637;-95
2022/04/07 14:09:50;;;;;;;16.13;3.90;;;17.30;52.40;;;;;;5017483;28;20209;-96
2022/04/07 14:12:40;;;;;;;11.43;3.53;;;17.40;52.50;;;;;;5019097;28;20213;-96
2022/04/07 14:15:09;;;;;;;12.63;3.90;;;17.40;51.60;;;;;;5013830;28;20201;-95
2022/04/07 14:17:37;;;;;;;14.30;3.50;;;17.50;52.00;;;;;;5017630;28;20205;-96
2022/04/07 14:20:20;;;;;;;11.00;3.63;;;17.50;50.60;;;;;;5023272;28;20646;-96
2022/04/07 14:23:10;;;;;;;11.27;3.37;;;17.50;50.20;;;;;;5029367;28;20194;-96
2022/04/07 14:25:50;;;;;;;12.00;3.17;;;17.40;50.40;;;;;;5032426;28;20253;-96
2022/04/07 14:28:42;;;;;;;17.50;4.40;;;17.40;50.40;;;;;;5030853;28;20230;-96
2022/04/07 14:31:27;;;;;;;12.10;3.70;;;17.40;50.20;;;;;;5029507;28;20227;-96
2022/04/07 14:34:11;;;;;;;13.67;4.47;;;17.30;50.50;;;;;;5019684;28;20279;-96
2022/04/07 14:36:49;;;;;;;13.63;3.90;;;17.20;50.10;;;;;;4999888;28;20712;-94
2022/04/07 14:42:07;;;;;;;19.60;4.20;;;17.10;49.70;;;;;;5008240;28;20213;-96
2022/04/07 14:45:02;;;;;;;12.60;3.10;;;16.90;49.70;;;;;;5002323;28;20205;-96
2022/04/07 14:47:51;;;;;;;14.93;3.33;;;16.80;50.50;;;;;;5014614;28;20597;-96
2022/04/07 14:50:34;;;;;;;17.27;4.17;;;16.70;50.80;;;;;;5018525;28;20214;-96
2022/04/07 14:53:10;;;;;;;15.03;3.80;;;16.70;50.70;;;;;;5019208;28;20612;-96
2022/04/07 14:55:52;;;;;;;12.80;3.33;;;16.60;50.40;;;;;;5017160;28;20229;-96
2022/04/07 14:58:53;;;;;;;15.63;3.87;;;16.50;50.70;;;;;;5008614;28;20202;-96
2022/04/07 15:01:41;;;;;;;15.30;3.23;;;16.40;50.80;;;;;;5004955;28;20223;-93
2022/04/07 15:04:13;;;;;;;15.43;3.83;;;16.40;50.90;;;;;;5023794;28;20212;-96
2022/04/07 15:06:41;;;;;;;22.07;6.03;;;16.40;51.00;;;;;;5034927;28;20212;-94
2022/04/07 15:09:19;;;;;;;19.53;4.73;;;16.30;51.50;;;;;;5029525;28;20226;-95
2022/04/07 15:12:11;;;;;;;16.37;4.03;;;16.30;50.90;;;;;;5023428;28;20224;-95
2022/04/07 15:14:41;;;;;;;17.00;4.20;;;16.30;51.20;;;;;;5021052;28;20294;-94
2022/04/07 15:17:31;;;;;;;;;;;;;;;;;;;;;
2022/04/07 15:20:01;;;;;;;12.77;4.07;;;16.20;52.10;;;;;;5022290;28;20706;-94
2022/04/07 15:22:30;;;;;;;12.80;3.77;;;16.20;51.90;;;;;;5021312;28;20228;-94
2022/04/07 15:25:10;;;;;;;16.47;4.70;;;16.10;51.70;;;;;;5026844;28;20255;-95
2022/04/07 15:31:18;;;;;;;13.50;3.47;;;16.10;51.80;;;;;;5017922;28;20640;-96
2022/04/07 15:34:09;;;;;;;12.67;3.30;;;16.00;51.60;;;;;;5025509;28;20236;-96
2022/04/07 15:36:42;;;;;;;11.53;3.57;;;16.00;52.00;;;;;;5027671;28;20202;-96
2022/04/07 15:39:15;;;;;;;19.30;4.30;;;15.90;51.70;;;;;;5031760;28;20234;-95
2022/04/07 15:41:50;;;;;;;15.60;3.80;;;15.80;51.80;;;;;;5028542;28;20213;-96
2022/04/07 15:44:34;;;;;;;17.63;4.20;;;15.80;52.00;;;;;;5023402;28;20690;-96
2022/04/07 15:47:11;;;;;;;17.87;4.73;;;15.80;51.70;;;;;;5024876;28;20274;-96
2022/04/07 15:49:43;;;;;;;19.63;4.37;;;15.70;51.60;;;;;;5017899;28;20207;-95
2022/04/07 15:52:17;;;;;;;15.27;3.83;;;15.70;52.20;;;;;;5008841;28;20209;-96
2022/04/07 15:54:52;;;;;;;19.33;4.13;;;15.60;52.00;;;;;;5008664;28;20298;-96
2022/04/07 15:57:34;;;;;;;13.03;3.70;;;15.60;52.10;;;;;;5011874;28;20212;-96
2022/04/07 16:03:43;;;;;;;15.87;4.67;;;15.50;52.40;;;;;;5037566;23;20242;-96
2022/04/07 16:06:13;;;;;;;14.50;4.10;;;15.50;52.90;;;;;;5019736;28;20683;-96
2022/04/07 16:08:58;;;;;;;17.20;4.07;;;15.40;53.00;;;;;;5021302;28;20713;-96
2022/04/07 16:11:30;;;;;;;14.10;3.40;;;15.50;52.40;;;;;;5019301;28;20662;-96
2022/04/07 16:14:08;;;;;;;14.07;3.10;;;15.40;52.10;;;;;;5025168;28;20205;-96
2022/04/07 16:17:15;;;;;;;16.00;3.93;;;15.40;52.20;;;;;;5006634;28;20308;-96
2022/04/07 16:23:22;;;;;;;19.53;3.57;;;15.40;52.30;;;;;;5018269;28;20182;-96
2022/04/07 16:25:54;;;;;;;12.47;3.53;;;15.40;52.80;;;;;;5019973;28;20207;-95
2022/04/07 16:29:01;;;;;;;23.03;4.07;;;15.40;52.60;;;;;;5019798;28;20233;-96
2022/04/07 16:31:36;;;;;;;12.30;3.57;;;15.40;52.70;;;;;;5019944;28;20206;-96
2022/04/07 16:34:16;;;;;;;18.30;4.23;;;15.40;52.20;;;;;;5017144;28;20209;-96
2022/04/07 16:36:57;;;;;;;15.70;3.57;;;15.40;52.20;;;;;;5016691;28;20203;-95